Time;durP1;ratioP1;P1;durP2;ratioP2;P2;SDS_P1;SDS_P2;PMS_P1;PMS_P2;Temp;Humidity;BMP_temperature;BMP_pressure;BME280_temperature;BME280_humidity;BME280_pressure;Samples;Min_cycle;Max_cycle;Signal;HPM_P1;HPM_P2
2022/08/06 00:01:50;;;;;;;0.57;0.57;;;23.10;82.40;;;;;;5017065;28;20026;-80
2022/08/06 00:04:17;;;;;;;0.82;0.70;;;23.10;82.20;;;;;;5017831;28;20137;-81
2022/08/06 00:06:42;;;;;;;1.50;0.80;;;23.10;83.50;;;;;;5026716;28;20017;-81
2022/08/06 00:09:08;;;;;;;1.08;0.90;;;23.20;83.20;;;;;;5021280;28;20520;-81
2022/08/06 00:11:34;;;;;;;0.77;0.65;;;23.10;83.90;;;;;;5025306;28;20120;-81
2022/08/06 00:14:00;;;;;;;0.82;0.70;;;23.10;84.10;;;;;;5012512;28;20037;-81
2022/08/06 00:16:26;;;;;;;0.75;0.55;;;23.10;84.80;;;;;;5006775;28;20029;-81
2022/08/06 00:18:52;;;;;;;1.17;0.70;;;23.10;85.10;;;;;;5014583;28;20405;-81
2022/08/06 00:21:18;;;;;;;1.02;0.70;;;23.10;86.10;;;;;;5016233;28;20026;-81
2022/08/06 00:23:44;;;;;;;0.88;0.77;;;23.10;85.40;;;;;;5015045;28;20052;-81
2022/08/06 00:26:09;;;;;;;0.65;0.65;;;23.10;85.70;;;;;;5008882;28;20554;-80
2022/08/06 00:28:35;;;;;;;0.75;0.63;;;23.10;85.70;;;;;;5020240;28;20115;-81
2022/08/06 00:31:03;;;;;;;0.80;0.60;;;23.00;85.20;;;;;;5014919;28;20109;-81
2022/08/06 00:33:29;;;;;;;1.23;0.70;;;23.10;85.10;;;;;;5016593;28;20030;-81
2022/08/06 00:35:55;;;;;;;0.60;0.60;;;23.10;84.90;;;;;;5014690;28;20399;-81
2022/08/06 00:38:21;;;;;;;0.50;0.50;;;23.10;84.60;;;;;;5015683;28;20049;-81
2022/08/06 00:40:47;;;;;;;2.00;0.85;;;23.10;84.50;;;;;;5011226;28;20022;-81
2022/08/06 00:43:13;;;;;;;0.95;0.60;;;23.00;84.30;;;;;;5011453;28;20113;-81
2022/08/06 00:45:39;;;;;;;0.93;0.70;;;23.00;84.30;;;;;;5016617;28;20090;-81
2022/08/06 00:48:05;;;;;;;0.95;0.70;;;23.00;84.10;;;;;;5019369;28;20057;-81
2022/08/06 00:50:32;;;;;;;0.60;0.60;;;23.00;84.20;;;;;;5030284;28;20030;-81
2022/08/06 00:52:59;;;;;;;1.00;0.60;;;23.00;84.50;;;;;;5019239;28;20018;-81
2022/08/06 00:55:25;;;;;;;1.17;0.57;;;23.00;84.20;;;;;;5017793;28;20038;-81
2022/08/06 00:57:51;;;;;;;1.38;0.70;;;22.90;83.50;;;;;;5018264;28;20041;-81
2022/08/06 01:00:17;;;;;;;1.75;0.60;;;23.00;83.70;;;;;;5016734;28;20400;-81
2022/08/06 01:02:43;;;;;;;0.75;0.75;;;22.90;83.90;;;;;;5025986;28;20062;-81
2022/08/06 01:05:09;;;;;;;1.55;0.60;;;22.90;83.70;;;;;;5019013;28;20494;-81
2022/08/06 01:07:35;;;;;;;2.13;0.60;;;22.90;83.60;;;;;;5018765;28;20059;-81
2022/08/06 01:10:00;;;;;;;0.68;0.57;;;22.90;83.80;;;;;;5016760;28;20536;-81
2022/08/06 01:12:26;;;;;;;0.85;0.60;;;22.90;83.70;;;;;;5010943;28;20026;-81
2022/08/06 01:14:52;;;;;;;0.65;0.50;;;22.90;83.70;;;;;;5012778;28;20543;-81
2022/08/06 01:17:39;;;;;;;2.22;0.75;;;22.90;83.50;;;;;;5007179;28;20093;-81
2022/08/06 01:20:46;;;;;;;0.50;0.50;;;22.90;83.60;;;;;;5019899;28;20027;-81
2022/08/06 01:23:21;;;;;;;0.90;0.70;;;22.80;83.60;;;;;;5017358;28;20030;-81
2022/08/06 01:26:15;;;;;;;1.40;0.70;;;22.80;83.50;;;;;;5014246;28;20423;-81
2022/08/06 01:28:50;;;;;;;1.15;0.75;;;22.80;83.30;;;;;;5017740;28;20029;-81
2022/08/06 01:31:43;;;;;;;1.98;0.85;;;22.80;83.40;;;;;;5010724;28;20026;-81
2022/08/06 01:34:32;;;;;;;0.70;0.65;;;22.80;83.50;;;;;;5018185;28;20041;-81
2022/08/06 01:37:16;;;;;;;0.55;0.50;;;22.80;83.50;;;;;;5011915;28;20486;-81
2022/08/06 01:39:46;;;;;;;0.68;0.60;;;22.80;83.30;;;;;;5011575;28;20226;-81
2022/08/06 01:42:13;;;;;;;0.45;0.45;;;22.80;83.50;;;;;;5025244;28;20029;-81
2022/08/06 01:44:45;;;;;;;0.70;0.40;;;22.80;83.40;;;;;;5017084;28;20038;-81
2022/08/06 01:47:15;;;;;;;0.70;0.70;;;22.80;83.40;;;;;;5018778;28;20021;-81
2022/08/06 01:49:48;;;;;;;0.70;0.60;;;22.80;83.20;;;;;;5018214;28;20026;-81
2022/08/06 01:52:15;;;;;;;1.15;0.70;;;22.70;83.10;;;;;;5011698;28;20065;-81
2022/08/06 01:54:45;;;;;;;0.73;0.60;;;22.70;82.90;;;;;;5019155;28;20026;-81
2022/08/06 01:57:13;;;;;;;1.15;0.60;;;22.70;83.00;;;;;;5010583;28;20471;-81
2022/08/06 01:59:53;;;;;;;0.98;0.80;;;22.70;82.90;;;;;;5010720;28;20107;-81
2022/08/06 02:02:23;;;;;;;1.15;0.73;;;22.70;82.80;;;;;;5011295;28;20083;-81
2022/08/06 02:04:56;;;;;;;1.23;1.10;;;22.70;82.70;;;;;;5018832;28;20040;-81
2022/08/06 02:07:26;;;;;;;1.38;0.52;;;22.70;82.70;;;;;;5010445;28;20033;-81
2022/08/06 02:09:53;;;;;;;1.20;0.80;;;22.70;82.60;;;;;;5023801;28;20029;-81
2022/08/06 02:12:23;;;;;;;0.73;0.73;;;22.70;82.50;;;;;;5014355;28;20025;-81
2022/08/06 02:14:54;;;;;;;2.03;0.80;;;22.60;82.40;;;;;;5018737;28;20032;-81
2022/08/06 02:17:25;;;;;;;0.73;0.73;;;22.60;82.40;;;;;;5011963;28;20032;-81
2022/08/06 02:19:53;;;;;;;0.55;0.55;;;22.60;82.30;;;;;;5019055;28;20033;-81
2022/08/06 02:22:21;;;;;;;0.60;0.50;;;22.60;82.30;;;;;;5015031;28;20027;-81
2022/08/06 02:24:47;;;;;;;0.52;0.43;;;22.60;82.10;;;;;;5010570;28;20030;-81
2022/08/06 02:27:16;;;;;;;0.60;0.60;;;22.60;82.10;;;;;;5007120;28;20216;-81
2022/08/06 02:29:44;;;;;;;0.82;0.63;;;22.60;82.10;;;;;;5021555;28;20026;-81
2022/08/06 02:32:11;;;;;;;1.48;0.73;;;22.60;82.00;;;;;;5002735;28;20038;-81
2022/08/06 02:34:37;;;;;;;0.52;0.45;;;22.60;82.00;;;;;;5024198;28;20105;-81
2022/08/06 02:37:10;;;;;;;0.85;0.73;;;22.60;81.90;;;;;;5026016;28;20025;-80
2022/08/06 02:39:44;;;;;;;0.50;0.50;;;22.50;82.10;;;;;;5014631;28;20026;-81
2022/08/06 02:42:28;;;;;;;0.82;0.68;;;22.50;82.30;;;;;;5026945;28;20069;-81
2022/08/06 02:44:57;;;;;;;;;;;22.50;81.40;;;;;;5027944;28;20026;-80
2022/08/06 02:47:53;;;;;;;0.70;0.70;;;22.50;81.50;;;;;;5018793;28;19916;-80
2022/08/06 02:50:24;;;;;;;1.13;0.65;;;22.50;81.50;;;;;;5006072;28;20088;-80
2022/08/06 02:53:00;;;;;;;0.63;0.60;;;22.50;81.60;;;;;;5019046;28;20371;-80
2022/08/06 02:55:34;;;;;;;0.70;0.70;;;22.40;81.40;;;;;;5016581;28;20116;-80
2022/08/06 02:58:29;;;;;;;0.63;0.63;;;22.50;81.30;;;;;;5013998;28;20097;-80
2022/08/06 03:00:57;;;;;;;0.70;0.50;;;22.40;81.20;;;;;;5012611;28;20061;-80
2022/08/06 03:03:24;;;;;;;0.60;0.60;;;22.40;81.10;;;;;;5014009;28;20026;-80
2022/08/06 03:05:52;;;;;;;0.60;0.60;;;22.40;81.20;;;;;;5017575;28;20025;-80
2022/08/06 03:08:23;;;;;;;0.75;0.75;;;22.40;81.10;;;;;;5017882;28;20056;-80
2022/08/06 03:10:50;;;;;;;0.88;0.85;;;22.40;81.20;;;;;;5016115;28;20109;-80
2022/08/06 03:13:18;;;;;;;0.55;0.55;;;22.40;81.00;;;;;;5021189;28;20029;-81
2022/08/06 03:15:46;;;;;;;0.65;0.65;;;22.40;81.00;;;;;;5011261;28;20041;-80
2022/08/06 03:18:15;;;;;;;0.40;0.40;;;22.40;81.00;;;;;;5015967;28;20077;-80
2022/08/06 03:20:42;;;;;;;1.85;0.90;;;22.40;80.90;;;;;;5018540;28;20025;-80
2022/08/06 03:23:09;;;;;;;1.65;0.65;;;22.30;80.90;;;;;;5012116;28;20026;-80
2022/08/06 03:25:36;;;;;;;0.60;0.60;;;22.30;80.60;;;;;;5017479;28;20040;-81
2022/08/06 03:28:04;;;;;;;0.68;0.68;;;22.30;80.70;;;;;;5013763;28;20029;-80
2022/08/06 03:30:30;;;;;;;1.02;0.60;;;22.30;80.80;;;;;;5014374;28;20042;-80
2022/08/06 03:32:58;;;;;;;0.70;0.70;;;22.30;80.70;;;;;;5018922;28;20036;-80
2022/08/06 03:35:24;;;;;;;1.80;0.60;;;22.30;80.60;;;;;;5025967;28;20033;-79
2022/08/06 03:37:53;;;;;;;0.68;0.60;;;22.30;80.70;;;;;;5003289;28;20517;-80
2022/08/06 03:40:20;;;;;;;0.60;0.50;;;22.30;80.80;;;;;;5010523;28;20061;-81
2022/08/06 03:42:46;;;;;;;0.70;0.70;;;22.20;80.50;;;;;;5021121;28;20042;-81
2022/08/06 03:45:12;;;;;;;0.70;0.70;;;22.20;80.40;;;;;;5016990;28;20034;-80
2022/08/06 03:47:44;;;;;;;1.73;0.90;;;22.20;80.50;;;;;;5011876;28;20071;-80
2022/08/06 03:50:14;;;;;;;0.60;0.60;;;22.20;80.70;;;;;;5000598;28;20074;-80
2022/08/06 03:52:44;;;;;;;0.70;0.60;;;22.20;80.50;;;;;;5014960;28;20022;-80
2022/08/06 03:55:15;;;;;;;0.70;0.57;;;22.20;80.40;;;;;;5006030;28;20030;-80
2022/08/06 03:57:46;;;;;;;0.65;0.60;;;22.20;80.40;;;;;;5013715;28;20038;-80
2022/08/06 04:00:16;;;;;;;0.70;0.70;;;22.20;81.10;;;;;;5021580;28;20026;-80
2022/08/06 04:02:48;;;;;;;0.68;0.68;;;22.20;80.40;;;;;;5018113;28;20060;-80
2022/08/06 04:05:23;;;;;;;0.52;0.50;;;22.20;80.50;;;;;;5024314;28;20029;-80
2022/08/06 04:07:53;;;;;;;0.60;0.57;;;22.10;80.40;;;;;;5017906;28;20030;-80
2022/08/06 04:10:21;;;;;;;1.02;0.68;;;22.10;80.50;;;;;;5018198;28;20030;-80
2022/08/06 04:12:47;;;;;;;2.05;0.80;;;22.10;80.80;;;;;;5009813;28;20490;-80
2022/08/06 04:15:14;;;;;;;0.90;0.75;;;22.10;81.60;;;;;;5024149;28;20038;-80
2022/08/06 04:17:44;;;;;;;0.52;0.50;;;22.00;82.30;;;;;;5014662;28;20034;-80
2022/08/06 04:20:18;;;;;;;0.43;0.43;;;22.00;82.90;;;;;;5010587;28;20394;-81
2022/08/06 04:22:44;;;;;;;1.70;0.60;;;21.90;83.20;;;;;;5012671;28;20038;-80
2022/08/06 04:25:10;;;;;;;0.70;0.70;;;21.90;83.60;;;;;;5015638;28;20502;-81
2022/08/06 04:27:41;;;;;;;0.80;0.80;;;21.80;83.90;;;;;;5014363;28;20026;-80
2022/08/06 04:30:08;;;;;;;0.50;0.50;;;21.80;84.20;;;;;;5012649;28;20025;-80
2022/08/06 04:32:35;;;;;;;0.77;0.77;;;21.80;84.40;;;;;;5018638;28;20029;-80
2022/08/06 04:35:04;;;;;;;1.35;0.80;;;21.80;84.60;;;;;;5019667;28;20037;-81
2022/08/06 04:37:32;;;;;;;0.85;0.65;;;21.70;84.80;;;;;;5015086;28;20037;-80
2022/08/06 04:39:58;;;;;;;1.02;0.70;;;21.70;85.10;;;;;;5010250;28;20471;-80
2022/08/06 04:42:25;;;;;;;0.77;0.70;;;21.70;85.30;;;;;;5012821;28;20041;-80
2022/08/06 04:44:52;;;;;;;0.68;0.68;;;21.70;85.30;;;;;;5027676;28;20429;-80
2022/08/06 04:47:19;;;;;;;0.98;0.88;;;21.60;85.50;;;;;;5009954;28;20053;-80
2022/08/06 04:49:45;;;;;;;0.70;0.70;;;21.60;85.90;;;;;;5014117;28;20262;-80
2022/08/06 04:52:24;;;;;;;1.10;0.90;;;21.60;85.90;;;;;;5012405;28;20073;-81
2022/08/06 04:54:50;;;;;;;0.93;0.70;;;21.60;85.90;;;;;;5008963;28;20104;-80
2022/08/06 04:57:16;;;;;;;1.60;0.75;;;21.60;85.90;;;;;;5010757;28;20065;-80
2022/08/06 04:59:42;;;;;;;0.70;0.70;;;21.50;86.00;;;;;;5012989;28;20032;-80
2022/08/06 05:02:07;;;;;;;0.85;0.85;;;21.50;86.30;;;;;;5019542;28;20030;-81
2022/08/06 05:04:34;;;;;;;0.88;0.77;;;21.50;86.70;;;;;;5021049;28;20021;-80
2022/08/06 05:07:11;;;;;;;1.38;0.70;;;21.50;86.70;;;;;;5016192;28;20033;-80
2022/08/06 05:09:39;;;;;;;1.60;0.63;;;21.50;86.80;;;;;;5016872;28;20522;-80
2022/08/06 05:12:13;;;;;;;1.30;1.00;;;21.50;87.10;;;;;;5025234;28;20128;-80
2022/08/06 05:15:11;;;;;;;;;;;21.50;86.80;;;;;;5011135;28;20398;-80
2022/08/06 05:17:48;;;;;;;0.82;0.80;;;21.50;86.70;;;;;;4999698;28;19909;-80
2022/08/06 05:20:19;;;;;;;0.75;0.70;;;21.40;87.30;;;;;;5031639;28;20025;-80
2022/08/06 05:22:52;;;;;;;0.82;0.73;;;21.40;87.40;;;;;;5021713;28;20061;-80
2022/08/06 05:25:18;;;;;;;1.00;0.87;;;21.40;87.20;;;;;;5009448;28;20026;-80
2022/08/06 05:27:44;;;;;;;0.93;0.80;;;21.40;87.40;;;;;;5017564;28;20276;-80
2022/08/06 05:30:10;;;;;;;1.58;1.17;;;21.40;87.80;;;;;;5019093;28;20536;-80
2022/08/06 05:32:43;;;;;;;1.83;0.80;;;21.40;87.50;;;;;;5005867;28;20030;-81
2022/08/06 05:35:09;;;;;;;0.63;0.63;;;21.30;87.70;;;;;;5010022;28;20038;-80
2022/08/06 05:37:35;;;;;;;0.88;0.88;;;21.30;87.60;;;;;;5025979;28;20029;-80
2022/08/06 05:40:01;;;;;;;0.93;0.68;;;21.30;87.50;;;;;;5020522;28;20367;-80
2022/08/06 05:42:27;;;;;;;0.90;0.75;;;21.30;87.50;;;;;;5016969;28;20052;-80
2022/08/06 05:44:53;;;;;;;0.80;0.80;;;21.30;87.60;;;;;;5029983;28;20036;-80
2022/08/06 05:47:23;;;;;;;1.10;1.00;;;21.30;87.60;;;;;;5016607;28;20164;-80
2022/08/06 05:50:11;;;;;;;1.33;0.73;;;21.30;87.80;;;;;;5014579;28;20498;-80
2022/08/06 05:52:53;;;;;;;1.10;0.77;;;21.30;87.80;;;;;;5033674;28;20582;-80
2022/08/06 05:55:27;;;;;;;2.17;0.82;;;21.30;87.80;;;;;;5015682;28;20092;-80
2022/08/06 05:58:10;;;;;;;0.80;0.80;;;21.30;87.80;;;;;;5011429;28;20048;-80
2022/08/06 06:00:38;;;;;;;0.80;0.80;;;21.30;87.90;;;;;;5012470;28;20075;-80
2022/08/06 06:03:06;;;;;;;0.93;0.90;;;21.30;87.90;;;;;;5012573;28;20045;-80
2022/08/06 06:05:33;;;;;;;0.70;0.70;;;21.30;88.00;;;;;;5022189;28;20026;-80
2022/08/06 06:07:59;;;;;;;1.00;1.00;;;21.30;88.10;;;;;;5015166;28;20014;-80
2022/08/06 06:10:27;;;;;;;0.80;0.80;;;21.30;88.10;;;;;;5024603;28;20417;-80
2022/08/06 06:12:55;;;;;;;0.82;0.77;;;21.30;88.20;;;;;;5019221;28;20099;-80
2022/08/06 06:15:20;;;;;;;1.60;0.95;;;21.30;88.20;;;;;;5012497;28;20080;-80
2022/08/06 06:18:30;;;;;;;1.60;0.98;;;21.30;88.30;;;;;;5015839;28;20034;-80
2022/08/06 06:21:15;;;;;;;0.90;0.88;;;21.30;88.30;;;;;;5019409;28;20065;-80
2022/08/06 06:23:53;;;;;;;0.85;0.85;;;21.30;88.40;;;;;;5009722;28;20037;-80
2022/08/06 06:26:54;;;;;;;0.70;0.70;;;21.30;88.40;;;;;;5009594;28;20032;-80
2022/08/06 06:29:47;;;;;;;0.80;0.75;;;21.30;88.50;;;;;;5010178;28;20022;-79
2022/08/06 06:32:46;;;;;;;0.82;0.82;;;21.30;88.60;;;;;;5025077;28;20171;-81
2022/08/06 06:35:45;;;;;;;1.05;1.00;;;21.30;88.60;;;;;;5008692;28;20479;-80
2022/08/06 06:38:50;;;;;;;0.80;0.75;;;21.30;88.70;;;;;;5023186;28;20029;-80
2022/08/06 06:41:43;;;;;;;1.23;1.10;;;21.30;88.70;;;;;;4997816;28;20042;-80
2022/08/06 06:44:24;;;;;;;1.67;1.10;;;21.30;88.70;;;;;;5028820;28;20036;-80
2022/08/06 06:47:00;;;;;;;1.58;1.00;;;21.20;88.70;;;;;;5014251;28;20031;-81
2022/08/06 06:50:01;;;;;;;3.00;1.10;;;21.20;88.70;;;;;;5028192;28;20025;-79
2022/08/06 06:52:34;;;;;;;0.85;0.85;;;21.30;88.80;;;;;;5027402;28;20052;-81
2022/08/06 06:55:11;;;;;;;1.20;1.10;;;21.30;88.90;;;;;;5021090;28;20026;-79
2022/08/06 06:57:43;;;;;;;0.88;0.85;;;21.30;88.80;;;;;;5007921;28;20406;-80
2022/08/06 07:00:10;;;;;;;1.40;0.95;;;21.30;88.80;;;;;;5017858;28;20037;-80
2022/08/06 07:02:40;;;;;;;1.45;1.02;;;21.30;88.80;;;;;;5017570;28;20038;-80
2022/08/06 07:05:09;;;;;;;1.02;1.02;;;21.30;88.80;;;;;;5016566;28;20479;-80
2022/08/06 07:07:37;;;;;;;0.70;0.65;;;21.30;88.80;;;;;;5014937;28;20037;-80
2022/08/06 07:10:07;;;;;;;0.82;0.80;;;21.30;88.80;;;;;;5021956;28;20506;-80
2022/08/06 07:12:34;;;;;;;1.02;0.90;;;21.30;89.00;;;;;;5013787;28;20061;-80
2022/08/06 07:15:04;;;;;;;1.02;0.98;;;21.30;89.00;;;;;;5016256;28;20030;-80
2022/08/06 07:17:33;;;;;;;1.35;1.10;;;21.30;88.90;;;;;;5018037;28;20034;-80
2022/08/06 07:20:02;;;;;;;0.80;0.80;;;21.30;89.00;;;;;;5008938;28;20026;-80
2022/08/06 07:22:29;;;;;;;1.40;0.88;;;21.30;89.00;;;;;;5010985;28;20149;-79
2022/08/06 07:24:59;;;;;;;1.48;1.20;;;21.30;89.10;;;;;;5003162;28;20105;-79
2022/08/06 07:27:30;;;;;;;1.02;0.95;;;21.30;89.10;;;;;;5015927;28;20037;-79
2022/08/06 07:29:57;;;;;;;1.20;1.00;;;21.20;89.10;;;;;;5014545;28;20034;-80
2022/08/06 07:32:23;;;;;;;0.90;0.90;;;21.20;89.20;;;;;;5011908;28;20383;-79
2022/08/06 07:34:50;;;;;;;1.20;1.10;;;21.20;89.20;;;;;;5013426;28;20021;-79
2022/08/06 07:37:20;;;;;;;1.15;0.88;;;21.20;89.90;;;;;;5016079;28;20037;-80
2022/08/06 07:39:48;;;;;;;0.88;0.88;;;21.20;89.30;;;;;;5025539;28;20568;-80
2022/08/06 07:42:16;;;;;;;1.35;1.00;;;21.20;89.30;;;;;;5021308;28;20044;-79
2022/08/06 07:44:50;;;;;;;0.80;0.80;;;21.20;89.40;;;;;;5013653;28;20033;-80
2022/08/06 07:47:19;;;;;;;1.17;1.08;;;21.20;89.40;;;;;;5015549;28;20026;-80
2022/08/06 07:49:52;;;;;;;0.88;0.80;;;21.20;89.50;;;;;;5018330;28;20026;-79
2022/08/06 07:52:18;;;;;;;1.20;1.10;;;21.20;89.50;;;;;;5012539;28;20486;-79
2022/08/06 07:54:45;;;;;;;1.58;1.25;;;21.20;89.50;;;;;;5021005;28;20026;-80
2022/08/06 07:57:13;;;;;;;1.25;0.90;;;21.10;89.50;;;;;;5012337;28;20099;-80
2022/08/06 07:59:40;;;;;;;1.13;1.00;;;21.10;89.50;;;;;;5015240;28;20417;-80
2022/08/06 08:02:07;;;;;;;1.20;1.00;;;21.10;89.50;;;;;;5013576;28;20088;-79
2022/08/06 08:07:20;;;;;;;1.80;1.48;;;21.10;89.50;;;;;;5003611;28;20053;-80
2022/08/06 08:09:47;;;;;;;1.67;1.15;;;21.10;89.60;;;;;;5010285;28;20470;-79
2022/08/06 08:12:16;;;;;;;1.30;1.00;;;21.10;89.60;;;;;;5014500;28;20033;-80
2022/08/06 08:14:44;;;;;;;1.08;0.90;;;21.10;89.60;;;;;;5027800;28;20034;-80
2022/08/06 08:17:10;;;;;;;1.42;0.93;;;21.10;89.70;;;;;;5007766;28;20113;-80
2022/08/06 08:19:37;;;;;;;1.60;1.20;;;21.00;89.70;;;;;;5016619;28;20118;-80
2022/08/06 08:22:13;;;;;;;0.95;0.95;;;21.00;90.10;;;;;;5020936;28;20025;-81
2022/08/06 08:24:40;;;;;;;2.08;1.00;;;21.10;89.80;;;;;;5027497;28;20034;-79
2022/08/06 08:27:09;;;;;;;1.00;0.82;;;21.00;89.70;;;;;;5020517;28;20479;-81
2022/08/06 08:29:35;;;;;;;1.20;1.10;;;21.10;89.90;;;;;;5012466;28;20507;-80
2022/08/06 08:32:01;;;;;;;1.23;0.90;;;21.10;89.90;;;;;;5016164;28;20113;-80
2022/08/06 08:34:27;;;;;;;1.98;1.75;;;21.00;89.90;;;;;;5021289;28;20054;-80
2022/08/06 08:36:53;;;;;;;1.30;1.20;;;21.00;89.90;;;;;;5019706;28;20509;-80
2022/08/06 08:39:19;;;;;;;1.05;0.93;;;21.00;89.90;;;;;;5021744;28;20026;-80
2022/08/06 08:41:51;;;;;;;1.85;1.13;;;21.00;89.90;;;;;;5022855;28;20025;-80
2022/08/06 08:44:27;;;;;;;1.50;1.00;;;21.00;90.00;;;;;;5021680;28;20033;-80
2022/08/06 08:46:58;;;;;;;1.10;1.00;;;21.00;90.00;;;;;;5022918;28;20487;-80
2022/08/06 08:49:45;;;;;;;1.65;1.23;;;21.00;90.00;;;;;;5022292;28;20021;-80
2022/08/06 08:52:23;;;;;;;1.00;0.93;;;21.00;90.00;;;;;;5018420;28;20030;-80
2022/08/06 08:54:52;;;;;;;0.73;0.73;;;20.90;90.00;;;;;;5015719;28;20034;-80
2022/08/06 08:57:20;;;;;;;1.20;1.10;;;20.90;90.00;;;;;;5016144;28;20513;-80
2022/08/06 08:59:46;;;;;;;1.38;0.90;;;20.90;90.00;;;;;;5020363;28;20030;-80
2022/08/06 09:02:13;;;;;;;0.98;0.98;;;20.90;90.00;;;;;;5011915;28;20084;-80
2022/08/06 09:04:40;;;;;;;1.10;0.95;;;20.90;90.00;;;;;;5015031;28;20034;-80
2022/08/06 09:07:08;;;;;;;1.48;0.95;;;20.90;90.10;;;;;;5012741;28;20030;-80
2022/08/06 09:09:34;;;;;;;1.42;0.85;;;20.90;90.10;;;;;;5014466;28;20022;-80
2022/08/06 09:12:01;;;;;;;1.40;0.90;;;20.90;90.10;;;;;;5024057;28;20037;-80
2022/08/06 09:14:27;;;;;;;1.70;1.05;;;20.90;90.10;;;;;;5022997;28;20095;-79
2022/08/06 09:16:53;;;;;;;1.20;1.10;;;20.90;90.10;;;;;;5006737;28;20042;-79
2022/08/06 09:19:19;;;;;;;1.88;1.20;;;20.90;90.10;;;;;;5009303;28;20041;-80
2022/08/06 09:21:45;;;;;;;1.10;1.00;;;20.90;90.10;;;;;;5009615;28;20033;-80
2022/08/06 09:24:11;;;;;;;1.27;1.00;;;20.90;90.10;;;;;;5013496;28;20402;-80
2022/08/06 09:26:37;;;;;;;1.38;1.20;;;20.90;90.10;;;;;;5017913;28;20397;-80
2022/08/06 09:29:20;;;;;;;1.38;0.93;;;20.90;90.10;;;;;;5010479;28;20022;-80
2022/08/06 09:31:45;;;;;;;1.48;0.80;;;20.90;90.10;;;;;;5011531;28;20052;-80
2022/08/06 09:34:11;;;;;;;1.40;1.30;;;20.90;90.10;;;;;;5011866;28;20057;-80
2022/08/06 09:36:42;;;;;;;0.88;0.88;;;20.90;90.10;;;;;;5015284;28;20088;-80
2022/08/06 09:39:08;;;;;;;0.93;0.80;;;20.80;90.10;;;;;;5015187;28;20030;-79
2022/08/06 09:41:44;;;;;;;1.13;1.00;;;20.80;90.10;;;;;;5008238;28;20033;-80
2022/08/06 09:44:11;;;;;;;1.80;1.02;;;20.80;90.10;;;;;;5017862;28;20022;-80
2022/08/06 09:46:39;;;;;;;1.10;0.95;;;20.90;90.10;;;;;;5018306;28;20044;-80
2022/08/06 09:49:06;;;;;;;2.47;1.17;;;20.80;90.10;;;;;;5018561;28;20116;-80
2022/08/06 09:51:34;;;;;;;1.15;1.00;;;20.80;90.10;;;;;;5012947;28;20387;-80
2022/08/06 09:54:01;;;;;;;1.00;1.00;;;20.80;90.10;;;;;;5019516;28;20056;-80
2022/08/06 09:56:27;;;;;;;2.65;1.10;;;20.80;90.10;;;;;;5016303;28;20564;-80
2022/08/06 09:59:03;;;;;;;0.95;0.75;;;20.80;90.10;;;;;;5016283;28;20138;-80
2022/08/06 10:01:29;;;;;;;3.38;1.10;;;20.80;90.10;;;;;;5009160;28;20521;-80
2022/08/06 10:03:58;;;;;;;1.38;1.27;;;20.80;90.30;;;;;;5015174;28;20502;-79
2022/08/06 10:06:25;;;;;;;1.58;1.13;;;20.80;90.10;;;;;;5009705;28;20037;-80
2022/08/06 10:09:07;;;;;;;1.88;1.20;;;20.80;90.00;;;;;;5018483;28;20034;-80
2022/08/06 10:11:41;;;;;;;1.52;1.42;;;20.80;90.00;;;;;;5015267;28;20025;-80
2022/08/06 10:14:28;;;;;;;1.30;1.20;;;20.80;90.00;;;;;;5018966;28;20033;-80
2022/08/06 10:17:03;;;;;;;1.90;1.20;;;20.80;90.00;;;;;;5019640;28;20544;-80
2022/08/06 10:19:29;;;;;;;1.58;1.10;;;20.80;90.10;;;;;;5026227;28;20837;-80
2022/08/06 10:21:55;;;;;;;1.05;0.98;;;20.80;90.10;;;;;;5016175;28;20029;-80
2022/08/06 10:24:21;;;;;;;1.08;0.80;;;20.80;90.10;;;;;;5013973;28;20056;-80
2022/08/06 10:26:48;;;;;;;1.38;1.27;;;20.80;90.10;;;;;;5020432;28;20340;-80
2022/08/06 10:29:17;;;;;;;0.95;0.95;;;20.80;90.10;;;;;;5019339;28;20046;-80
2022/08/06 10:31:44;;;;;;;1.73;1.13;;;20.80;90.10;;;;;;5011920;28;20041;-80
2022/08/06 10:34:20;;;;;;;1.85;1.00;;;20.80;90.10;;;;;;5014378;28;20089;-80
2022/08/06 10:36:57;;;;;;;1.20;1.10;;;20.80;90.10;;;;;;5020808;28;20687;-80
2022/08/06 10:39:27;;;;;;;2.03;1.25;;;20.80;90.00;;;;;;5016346;28;20057;-80
2022/08/06 10:41:55;;;;;;;1.70;1.20;;;20.80;90.00;;;;;;5018082;28;20037;-80
2022/08/06 10:44:22;;;;;;;2.78;1.30;;;20.80;90.00;;;;;;5012300;28;20077;-80
2022/08/06 10:46:51;;;;;;;1.10;1.00;;;20.80;90.00;;;;;;5013949;28;20112;-80
2022/08/06 10:49:19;;;;;;;1.17;0.82;;;20.80;90.00;;;;;;5013929;28;20403;-80
2022/08/06 10:51:46;;;;;;;1.48;1.10;;;20.80;90.10;;;;;;5009193;28;20626;-80
2022/08/06 10:54:12;;;;;;;1.27;0.93;;;20.80;90.00;;;;;;5009005;28;20022;-81
2022/08/06 10:56:38;;;;;;;0.95;0.95;;;20.80;90.10;;;;;;5012740;28;20057;-80
2022/08/06 10:59:05;;;;;;;1.27;1.17;;;20.80;90.10;;;;;;5012649;28;20390;-80
2022/08/06 11:02:08;;;;;;;0.82;0.70;;;20.80;90.10;;;;;;5022882;28;20026;-80
2022/08/06 11:04:55;;;;;;;1.38;1.27;;;20.80;90.00;;;;;;5016490;28;20038;-80
2022/08/06 11:07:46;;;;;;;1.20;1.10;;;20.80;90.00;;;;;;5010028;28;20042;-80
2022/08/06 11:10:27;;;;;;;0.82;0.80;;;20.80;90.00;;;;;;5031385;28;20071;-80
2022/08/06 11:13:07;;;;;;;1.23;1.13;;;20.70;90.00;;;;;;5017044;28;20048;-80
2022/08/06 11:15:39;;;;;;;1.50;1.20;;;20.70;89.90;;;;;;5015551;28;20103;-81
2022/08/06 11:18:07;;;;;;;1.35;1.25;;;20.80;90.00;;;;;;5018756;28;20116;-80
2022/08/06 11:20:33;;;;;;;1.00;0.90;;;20.80;89.90;;;;;;5014247;28;20182;-80
2022/08/06 11:23:00;;;;;;;1.30;1.20;;;20.80;90.00;;;;;;5024288;28;20029;-80
2022/08/06 11:25:47;;;;;;;1.20;1.10;;;20.70;89.90;;;;;;5012930;28;20041;-81
2022/08/06 11:28:33;;;;;;;1.50;1.00;;;20.80;90.00;;;;;;5014407;28;20045;-80
2022/08/06 11:31:01;;;;;;;1.20;1.05;;;20.80;90.00;;;;;;5007150;28;20026;-80
2022/08/06 11:33:33;;;;;;;1.77;1.15;;;20.80;89.90;;;;;;5023164;28;20050;-81
2022/08/06 11:36:24;;;;;;;1.27;1.00;;;20.80;89.90;;;;;;5018829;28;20037;-80
2022/08/06 11:38:52;;;;;;;2.17;0.90;;;20.80;89.90;;;;;;5016583;28;20112;-80
2022/08/06 11:41:23;;;;;;;1.20;1.10;;;20.80;90.00;;;;;;5020929;28;20478;-80
2022/08/06 11:43:52;;;;;;;1.38;1.00;;;20.80;90.00;;;;;;5019468;28;20345;-80
2022/08/06 11:46:29;;;;;;;1.33;1.23;;;20.80;90.00;;;;;;5022524;28;20058;-80
2022/08/06 11:49:06;;;;;;;1.45;0.95;;;20.80;90.00;;;;;;5024169;28;20049;-80
2022/08/06 11:51:57;;;;;;;2.33;1.15;;;20.80;90.00;;;;;;5015581;28;20032;-80
2022/08/06 11:54:36;;;;;;;3.17;1.65;;;20.80;90.00;;;;;;5023885;28;20029;-80
2022/08/06 11:57:04;;;;;;;1.42;1.00;;;20.80;90.00;;;;;;5028006;28;20110;-81
2022/08/06 11:59:32;;;;;;;1.20;1.10;;;20.80;89.80;;;;;;5024631;28;20036;-80
2022/08/06 12:01:59;;;;;;;1.02;0.80;;;20.80;89.90;;;;;;5022855;28;20026;-81
2022/08/06 12:04:44;;;;;;;1.23;0.88;;;20.80;90.00;;;;;;5020607;28;20025;-80
2022/08/06 12:07:25;;;;;;;2.95;1.02;;;20.80;89.80;;;;;;5019934;28;20030;-80
2022/08/06 12:10:07;;;;;;;1.90;1.00;;;20.80;78.30;;;;;;5017562;28;20056;-81
2022/08/06 12:12:50;;;;;;;4.60;3.40;;;20.90;77.80;;;;;;5022730;28;20099;-80
2022/08/06 12:15:30;;;;;;;5.88;4.25;;;21.00;76.80;;;;;;5023679;28;20018;-79
2022/08/06 12:18:00;;;;;;;3.40;3.10;;;21.00;79.20;;;;;;5026543;28;20029;-80
2022/08/06 12:20:37;;;;;;;4.15;3.85;;;21.00;81.00;;;;;;5017541;28;20483;-79
2022/08/06 12:23:07;;;;;;;3.92;3.58;;;20.90;81.80;;;;;;5014432;28;20052;-79
2022/08/06 12:25:38;;;;;;;6.53;4.15;;;20.90;82.60;;;;;;5005980;28;20052;-80
2022/08/06 12:28:05;;;;;;;4.32;3.92;;;20.90;82.90;;;;;;5017178;28;20447;-80
2022/08/06 12:30:40;;;;;;;5.00;3.97;;;20.90;83.50;;;;;;5024186;28;20028;-80
2022/08/06 12:33:08;;;;;;;4.07;3.70;;;20.80;83.80;;;;;;5021972;28;20491;-79
2022/08/06 12:35:34;;;;;;;4.80;4.07;;;20.80;84.20;;;;;;5020651;28;20091;-80
2022/08/06 12:38:00;;;;;;;4.18;3.78;;;20.80;84.60;;;;;;5026233;28;20034;-80
2022/08/06 12:40:26;;;;;;;4.68;4.20;;;20.80;84.90;;;;;;5026142;28;20383;-80
2022/08/06 12:43:01;;;;;;;3.88;3.53;;;20.80;85.00;;;;;;5020818;28;20029;-80
2022/08/06 12:45:29;;;;;;;4.50;3.63;;;20.80;85.40;;;;;;5018556;28;20152;-80
2022/08/06 12:48:03;;;;;;;5.63;3.75;;;20.70;85.40;;;;;;5019329;28;20022;-80
2022/08/06 12:50:32;;;;;;;2.20;1.50;;;20.80;85.80;;;;;;5023868;28;20026;-82
2022/08/06 12:53:13;;;;;;;7.50;1.73;;;20.70;74.90;;;;;;5033663;28;20021;-83
2022/08/06 12:55:47;;;;;;;5.95;1.17;;;20.80;75.20;;;;;;5012176;28;20029;-82
2022/08/06 12:58:19;;;;;;;3.85;1.25;;;20.70;74.00;;;;;;5018306;28;20056;-82
2022/08/06 13:00:54;;;;;;;4.22;1.10;;;20.60;72.40;;;;;;5015463;28;20033;-81
2022/08/06 13:03:23;;;;;;;9.88;1.42;;;20.40;74.50;;;;;;5015034;28;20032;-82
2022/08/06 13:05:50;;;;;;;29.63;6.50;;;20.40;74.40;;;;;;5025814;28;20085;-82
2022/08/06 13:08:18;;;;;;;119.55;26.15;;;20.30;74.30;;;;;;5036188;28;20032;-84
2022/08/06 13:10:55;;;;;;;874.92;238.40;;;20.50;76.00;;;;;;5025551;28;20623;-81
2022/08/06 13:13:33;;;;;;;517.88;117.20;;;20.60;73.80;;;;;;5015981;28;20072;-81